This is the latest recevied weather packets stored in our database for station/object LRSB. If no packets are shown the sender has not sent any weather packets the latest 10 day(s).
| Time | Temp. | Humidity | Pressure | Rain* | Wind** | Luminosity | Snow |
|---|---|---|---|---|---|---|---|
| 1777884520 | 17.78° C | 37% | 1019 hPa | - | - | - | - |
| 1777883591 | 17.78° C | 37% | 1019 hPa | - | - | - | - |
| 1777882691 | 17.78° C | 37% | 1019 hPa | - | - | - | - |
| 1777881791 | 17.78° C | 37% | 1019 hPa | - | - | - | - |
| 1777880892 | 16.11° C | 48% | 1019 hPa | - | - | - | - |
| 1777879991 | 16.11° C | 48% | 1019 hPa | - | - | - | - |
| 1777879091 | 15° C | 48% | 1019 hPa | - | - | - | - |
| 1777878192 | 15° C | 48% | 1019 hPa | - | - | - | - |
| 1777877291 | 13.89° C | 44% | 1019 hPa | - | - | - | - |
| 1777876392 | 13.89° C | 44% | 1019 hPa | - | - | - | - |
| 1777875492 | 12.22° C | 54% | 1019 hPa | - | - | - | - |
| 1777874591 | 12.22° C | 54% | 1019 hPa | - | - | - | - |
| 1777873692 | 11.11° C | 58% | 1019 hPa | - | - | - | - |
| 1777871892 | 10° C | 67% | 1019 hPa | - | - | - | - |
| 1777871001 | 10° C | 67% | 1019 hPa | - | - | - | - |
| 1777870091 | 7.78° C | 71% | 1019 hPa | - | - | - | - |
| 1777869191 | 7.78° C | 71% | 1019 hPa | - | - | - | - |
| 1777868291 | 6.11° C | 76% | 1019 hPa | - | - | - | - |
| 1777867391 | 6.11° C | 76% | 1019 hPa | - | - | - | - |
| 1777866491 | 6.11° C | 76% | 1019 hPa | - | - | - | - |
| 1777865591 | 6.11° C | 76% | 1019 hPa | - | - | - | - |
| 1777864691 | 6.11° C | 76% | 1019 hPa | - | - | - | - |
| 1777863867 | 6.11° C | 76% | 1019 hPa | - | - | - | - |
| 1777862892 | 5° C | 81% | 1019 hPa | - | - | - | - |
| 1777861991 | 5° C | 81% | 1019 hPa | - | - | - | - |
* Rain since midnight (hover to see other rain measurements)
** Current wind speed in m/s (hover to see current wind gust speed)